Time;durP1;ratioP1;P1;durP2;ratioP2;P2;SDS_P1;SDS_P2;PMS_P1;PMS_P2;Temp;Humidity;BMP_temperature;BMP_pressure;BME280_temperature;BME280_humidity;BME280_pressure;Samples;Min_cycle;Max_cycle;Signal;HPM_P1;HPM_P2
2023/06/04 00:00:05;;;;;;;2.10;1.30;;;20.60;67.30;;;;;;5052972;28;20025;-71
2023/06/04 00:02:30;;;;;;;3.55;0.95;;;20.50;67.40;;;;;;5052589;28;20025;-69
2023/06/04 00:04:56;;;;;;;6.07;1.23;;;20.50;67.40;;;;;;5052842;28;20386;-69
2023/06/04 00:07:22;;;;;;;4.70;1.50;;;20.50;67.50;;;;;;5052839;28;20056;-69
2023/06/04 00:09:47;;;;;;;10.30;1.20;;;20.50;67.70;;;;;;5053070;28;20025;-69
2023/06/04 00:12:14;;;;;;;4.65;1.38;;;20.50;67.70;;;;;;5052401;28;20025;-79
2023/06/04 00:14:39;;;;;;;4.53;1.08;;;20.50;67.80;;;;;;5052882;28;20021;-69
2023/06/04 00:17:05;;;;;;;3.42;1.10;;;20.40;67.90;;;;;;5052718;28;20474;-76
2023/06/04 00:19:31;;;;;;;1.88;1.00;;;20.40;68.10;;;;;;5052886;28;20029;-75
2023/06/04 00:21:56;;;;;;;2.90;1.33;;;20.30;68.20;;;;;;5052524;28;20029;-78
2023/06/04 00:24:22;;;;;;;3.30;1.42;;;20.30;68.30;;;;;;5052645;28;20032;-69
2023/06/04 00:26:48;;;;;;;3.03;1.10;;;20.30;68.40;;;;;;5050990;28;20033;-69
2023/06/04 00:29:13;;;;;;;7.40;1.42;;;20.30;68.50;;;;;;5053269;28;20413;-78
2023/06/04 00:31:39;;;;;;;5.70;1.50;;;20.30;68.60;;;;;;5033649;28;20029;-70
2023/06/04 00:34:05;;;;;;;4.13;1.02;;;20.30;68.70;;;;;;5032685;28;20037;-69
2023/06/04 00:36:30;;;;;;;3.92;1.10;;;20.30;68.80;;;;;;5032688;28;20479;-69
2023/06/04 00:38:56;;;;;;;5.10;1.00;;;20.20;68.90;;;;;;5032567;28;20030;-77
2023/06/04 00:41:21;;;;;;;7.18;1.92;;;20.20;69.00;;;;;;5032377;28;20134;-69
2023/06/04 00:43:55;;;;;;;4.03;1.25;;;20.20;69.20;;;;;;5032739;28;20097;-69
2023/06/04 00:46:21;;;;;;;4.78;1.20;;;20.10;69.30;;;;;;5032579;28;20025;-68
2023/06/04 00:48:47;;;;;;;5.97;1.40;;;20.10;69.40;;;;;;5032803;28;20546;-77
2023/06/04 00:51:13;;;;;;;4.97;1.52;;;20.20;69.40;;;;;;5035007;28;20061;-74
2023/06/04 00:53:39;;;;;;;3.95;1.42;;;20.10;69.60;;;;;;5051590;28;20017;-69
2023/06/04 00:56:05;;;;;;;3.22;1.33;;;20.10;70.20;;;;;;5036270;28;20127;-74
2023/06/04 00:58:37;;;;;;;4.10;1.27;;;20.10;69.80;;;;;;5036120;28;20028;-69
2023/06/04 01:01:05;;;;;;;4.07;1.08;;;20.10;69.80;;;;;;5036077;28;20041;-70
2023/06/04 01:03:35;;;;;;;2.90;1.23;;;20.00;70.00;;;;;;5036115;28;20455;-69
2023/06/04 01:06:12;;;;;;;5.00;1.40;;;20.00;70.10;;;;;;5036150;28;20064;-77
2023/06/04 01:08:42;;;;;;;3.25;1.20;;;20.00;70.20;;;;;;5035660;28;20377;-77
2023/06/04 01:11:08;;;;;;;1.50;1.00;;;20.00;70.20;;;;;;5036131;28;20040;-70
2023/06/04 01:13:33;;;;;;;3.00;1.20;;;19.90;70.20;;;;;;5044183;28;20026;-77
2023/06/04 01:16:00;;;;;;;4.07;1.10;;;19.90;70.20;;;;;;5052540;28;20029;-77
2023/06/04 01:18:27;;;;;;;3.70;1.05;;;19.90;70.30;;;;;;5054220;28;20302;-76
2023/06/04 01:21:01;;;;;;;3.33;1.10;;;19.90;70.30;;;;;;5054607;28;20027;-78
2023/06/04 01:23:46;;;;;;;2.88;1.55;;;19.90;70.30;;;;;;5055261;28;20021;-76
2023/06/04 01:26:13;;;;;;;2.92;1.50;;;19.90;70.30;;;;;;5055610;28;20028;-77
2023/06/04 01:28:39;;;;;;;4.15;1.35;;;19.80;70.30;;;;;;5055298;28;20112;-77
2023/06/04 01:31:07;;;;;;;8.00;1.20;;;19.80;70.20;;;;;;5055766;28;20428;-78
2023/06/04 01:33:33;;;;;;;2.97;1.10;;;19.80;70.40;;;;;;5055546;28;20032;-77
2023/06/04 01:35:59;;;;;;;6.78;1.30;;;19.70;70.40;;;;;;5055442;28;20032;-73
2023/06/04 01:38:25;;;;;;;3.50;1.55;;;19.70;70.30;;;;;;5054671;28;20100;-68
2023/06/04 01:40:52;;;;;;;5.38;1.40;;;19.70;70.30;;;;;;5055088;28;20171;-73
2023/06/04 01:43:18;;;;;;;2.60;1.35;;;19.60;70.30;;;;;;5055135;28;20416;-75
2023/06/04 01:45:44;;;;;;;3.03;1.55;;;19.60;70.40;;;;;;5055437;28;20156;-76
2023/06/04 01:48:10;;;;;;;2.92;1.52;;;19.70;70.40;;;;;;5054822;28;20073;-72
2023/06/04 01:50:35;;;;;;;6.65;1.90;;;19.60;70.40;;;;;;5055091;28;20025;-75
2023/06/04 01:53:01;;;;;;;2.97;1.52;;;19.60;70.60;;;;;;5054685;28;20493;-76
2023/06/04 01:55:28;;;;;;;3.67;1.35;;;19.60;70.50;;;;;;5055109;28;20373;-69
2023/06/04 01:57:54;;;;;;;3.92;1.15;;;19.60;70.60;;;;;;5055142;28;20056;-69
2023/06/04 02:00:20;;;;;;;3.20;1.08;;;19.50;70.70;;;;;;5054555;28;20479;-74
2023/06/04 02:02:47;;;;;;;3.70;1.50;;;19.50;70.70;;;;;;5054471;28;20480;-74
2023/06/04 02:05:14;;;;;;;7.10;1.50;;;19.40;70.90;;;;;;5054888;28;20018;-72
2023/06/04 02:07:41;;;;;;;3.55;1.30;;;19.50;70.90;;;;;;5054509;28;20048;-68
2023/06/04 02:10:09;;;;;;;4.20;1.63;;;19.50;70.80;;;;;;5054871;28;20425;-71
2023/06/04 02:12:39;;;;;;;2.88;1.25;;;19.40;70.90;;;;;;5053458;28;20024;-74
2023/06/04 02:15:07;;;;;;;4.75;1.50;;;19.40;70.90;;;;;;5054616;28;20032;-77
2023/06/04 02:17:32;;;;;;;5.18;1.42;;;19.40;71.00;;;;;;5054671;28;20025;-76
2023/06/04 02:19:59;;;;;;;6.78;1.65;;;19.40;71.10;;;;;;5054582;28;20029;-72
2023/06/04 02:22:25;;;;;;;3.92;1.38;;;19.40;71.10;;;;;;5054014;28;20394;-70
2023/06/04 02:24:51;;;;;;;2.33;1.40;;;19.40;71.10;;;;;;5054530;28;20108;-77
2023/06/04 02:27:17;;;;;;;3.80;1.27;;;19.40;71.10;;;;;;5054196;28;20060;-69
2023/06/04 02:29:43;;;;;;;4.20;1.40;;;19.40;71.10;;;;;;5053195;28;20043;-72
2023/06/04 02:32:09;;;;;;;3.15;1.65;;;19.30;71.00;;;;;;5054312;28;20021;-78
2023/06/04 02:34:35;;;;;;;2.22;1.60;;;19.30;71.10;;;;;;5054274;28;20018;-77
2023/06/04 02:37:02;;;;;;;2.17;1.40;;;19.30;71.30;;;;;;5054136;28;20032;-76
2023/06/04 02:39:27;;;;;;;3.00;1.35;;;19.20;71.30;;;;;;5053941;28;20031;-76
2023/06/04 02:41:53;;;;;;;3.80;1.23;;;19.30;71.40;;;;;;5054147;28;20041;-72
2023/06/04 02:44:19;;;;;;;6.18;1.67;;;19.20;71.50;;;;;;5052794;28;20355;-70
2023/06/04 02:46:44;;;;;;;3.03;1.55;;;19.20;72.10;;;;;;5054101;28;20043;-75
2023/06/04 02:49:13;;;;;;;5.88;1.73;;;19.20;71.60;;;;;;5053867;28;20029;-72
2023/06/04 02:51:40;;;;;;;3.92;1.52;;;19.20;71.60;;;;;;5053927;28;20017;-70
2023/06/04 02:54:05;;;;;;;3.15;1.60;;;19.20;71.70;;;;;;5053964;28;20032;-71
2023/06/04 02:56:31;;;;;;;5.95;1.40;;;19.20;71.80;;;;;;5053973;28;20028;-68
2023/06/04 02:58:57;;;;;;;5.90;1.50;;;19.20;71.80;;;;;;5053760;28;20083;-69
2023/06/04 03:01:23;;;;;;;3.90;1.50;;;19.10;71.80;;;;;;5053569;28;20025;-70
2023/06/04 03:03:49;;;;;;;4.72;1.65;;;19.10;72.60;;;;;;5053725;28;20036;-74
2023/06/04 03:06:16;;;;;;;3.20;1.73;;;19.10;72.20;;;;;;5053552;28;20021;-72
2023/06/04 03:08:42;;;;;;;3.30;1.58;;;19.00;72.20;;;;;;5053892;28;20028;-71
2023/06/04 03:11:08;;;;;;;4.25;1.98;;;19.00;72.20;;;;;;5053532;28;20055;-69
2023/06/04 03:13:34;;;;;;;3.35;2.03;;;19.00;72.30;;;;;;5052660;28;20474;-74
2023/06/04 03:16:02;;;;;;;3.45;1.50;;;19.00;72.40;;;;;;5053577;28;20036;-70
2023/06/04 03:18:28;;;;;;;2.60;1.60;;;19.00;72.50;;;;;;5053332;28;20047;-77
2023/06/04 03:20:54;;;;;;;2.80;1.50;;;19.00;72.50;;;;;;5053169;28;20029;-77
2023/06/04 03:23:21;;;;;;;5.85;1.88;;;18.90;72.50;;;;;;5053417;28;20082;-78
2023/06/04 03:25:47;;;;;;;3.05;1.60;;;18.90;72.70;;;;;;5068826;28;20025;-73
2023/06/04 03:28:13;;;;;;;2.70;1.58;;;18.90;72.70;;;;;;5053157;28;20028;-75
2023/06/04 03:30:40;;;;;;;2.67;1.80;;;18.90;72.80;;;;;;5053300;28;20021;-72
2023/06/04 03:33:06;;;;;;;3.80;1.55;;;18.90;72.90;;;;;;5053457;28;20028;-71
2023/06/04 03:35:32;;;;;;;4.60;1.88;;;18.80;72.90;;;;;;5052848;28;20488;-69
2023/06/04 03:37:57;;;;;;;5.10;1.70;;;18.80;73.10;;;;;;5053153;28;20378;-79
2023/06/04 03:40:23;;;;;;;3.42;1.90;;;18.80;73.10;;;;;;5053008;28;20493;-69
2023/06/04 03:42:48;;;;;;;2.75;1.65;;;18.80;73.10;;;;;;5052052;28;20466;-69
2023/06/04 03:45:14;;;;;;;4.22;2.10;;;18.70;73.30;;;;;;5053106;28;20044;-71
2023/06/04 03:47:40;;;;;;;4.90;1.70;;;18.70;73.20;;;;;;5052849;28;20025;-69
2023/06/04 03:50:06;;;;;;;2.92;1.90;;;18.70;73.30;;;;;;5053102;28;20106;-76
2023/06/04 03:52:32;;;;;;;2.30;1.45;;;18.70;73.40;;;;;;5053160;28;20529;-74
2023/06/04 03:54:58;;;;;;;4.43;1.75;;;18.70;73.40;;;;;;5053200;28;20025;-72
2023/06/04 03:57:24;;;;;;;3.22;1.55;;;18.70;73.60;;;;;;5052995;28;20108;-69
2023/06/04 03:59:50;;;;;;;4.50;1.73;;;18.60;73.50;;;;;;5052990;28;20029;-70
2023/06/04 04:02:17;;;;;;;2.30;1.52;;;18.60;73.50;;;;;;5052351;28;20044;-69
2023/06/04 04:04:43;;;;;;;4.00;1.80;;;18.60;73.70;;;;;;5053055;28;20071;-77
2023/06/04 04:07:10;;;;;;;4.40;1.80;;;18.60;73.60;;;;;;5052883;28;20025;-73
2023/06/04 04:09:36;;;;;;;7.72;2.30;;;18.60;73.80;;;;;;5052992;28;20465;-73
2023/06/04 04:12:02;;;;;;;2.75;1.83;;;18.60;73.90;;;;;;5053175;28;20083;-80
2023/06/04 04:14:27;;;;;;;2.95;1.65;;;18.60;73.90;;;;;;5052711;28;20025;-75
2023/06/04 04:16:53;;;;;;;3.80;1.73;;;18.60;74.00;;;;;;5052504;28;20104;-77
2023/06/04 04:19:18;;;;;;;3.97;2.05;;;18.60;74.10;;;;;;5052751;28;20021;-72
2023/06/04 04:21:48;;;;;;;3.75;1.50;;;18.50;74.10;;;;;;5052750;28;20029;-79
2023/06/04 04:24:22;;;;;;;4.00;2.10;;;18.50;74.10;;;;;;5053688;28;20021;-70
2023/06/04 04:26:48;;;;;;;4.18;2.22;;;18.50;74.20;;;;;;5056646;28;20057;-78
2023/06/04 04:29:14;;;;;;;4.32;1.55;;;18.50;74.20;;;;;;5056665;28;20060;-71
2023/06/04 04:31:40;;;;;;;6.25;1.70;;;18.50;74.20;;;;;;5056430;28;20543;-79
2023/06/04 04:34:08;;;;;;;6.32;2.20;;;18.50;74.20;;;;;;5056810;28;20040;-78
2023/06/04 04:36:36;;;;;;;5.30;1.85;;;18.50;74.20;;;;;;5056473;28;20028;-78
2023/06/04 04:39:01;;;;;;;3.05;1.67;;;18.50;74.40;;;;;;5056969;28;20028;-77
2023/06/04 04:41:27;;;;;;;3.40;2.15;;;18.50;75.00;;;;;;5056346;28;20120;-77
2023/06/04 04:43:53;;;;;;;6.03;2.28;;;18.50;74.60;;;;;;5056443;28;20032;-78
2023/06/04 04:46:19;;;;;;;4.40;1.90;;;18.40;74.70;;;;;;5056094;28;20112;-72
2023/06/04 04:48:45;;;;;;;5.68;2.17;;;18.40;74.80;;;;;;5056330;28;20037;-79
2023/06/04 04:51:10;;;;;;;4.38;1.98;;;18.40;74.60;;;;;;5056216;28;20043;-78
2023/06/04 04:53:36;;;;;;;7.35;2.10;;;18.50;74.70;;;;;;5056342;28;20033;-78
2023/06/04 04:56:01;;;;;;;6.70;2.20;;;18.50;74.70;;;;;;5056487;28;20104;-74
2023/06/04 04:58:27;;;;;;;4.40;1.83;;;18.50;74.80;;;;;;5055903;28;20079;-69
2023/06/04 05:00:52;;;;;;;3.60;1.98;;;18.40;74.80;;;;;;5055407;28;20033;-75
2023/06/04 05:03:18;;;;;;;3.70;1.85;;;18.40;74.80;;;;;;5056068;28;20032;-77
2023/06/04 05:05:43;;;;;;;7.78;2.20;;;18.40;74.90;;;;;;5055767;28;20108;-72
2023/06/04 05:08:09;;;;;;;5.35;2.00;;;18.40;75.00;;;;;;5055785;28;20474;-78
2023/06/04 05:10:35;;;;;;;6.07;2.15;;;18.40;75.20;;;;;;5055847;28;20075;-70
2023/06/04 05:13:02;;;;;;;4.55;1.98;;;18.40;75.30;;;;;;5055943;28;20416;-77
2023/06/04 05:15:27;;;;;;;5.40;2.30;;;18.40;75.20;;;;;;5055728;28;20025;-69
2023/06/04 05:17:53;;;;;;;4.32;1.83;;;18.40;75.10;;;;;;5055763;28;20025;-73
2023/06/04 05:20:20;;;;;;;3.55;2.00;;;18.50;75.10;;;;;;5055917;28;20025;-72
2023/06/04 05:22:46;;;;;;;4.25;2.25;;;18.40;75.30;;;;;;5056014;28;20036;-80
2023/06/04 05:25:12;;;;;;;5.53;2.10;;;18.50;75.40;;;;;;5056650;28;20025;-79
2023/06/04 05:27:39;;;;;;;4.00;2.20;;;18.40;75.60;;;;;;5059624;28;20029;-81
2023/06/04 05:30:05;;;;;;;3.80;2.15;;;18.40;75.40;;;;;;5059709;28;20021;-80
2023/06/04 05:32:32;;;;;;;4.97;2.13;;;18.50;75.40;;;;;;5058715;28;20017;-80
2023/06/04 05:34:59;;;;;;;2.95;2.03;;;18.50;75.40;;;;;;5057370;28;20025;-80
2023/06/04 05:37:28;;;;;;;3.95;2.30;;;18.50;75.70;;;;;;5054843;28;20025;-69
2023/06/04 05:39:57;;;;;;;5.07;2.20;;;18.60;75.90;;;;;;5055429;28;20036;-69
2023/06/04 05:42:23;;;;;;;3.80;1.95;;;18.60;75.70;;;;;;5055104;28;20087;-69
2023/06/04 05:44:49;;;;;;;5.93;2.38;;;18.80;75.40;;;;;;5055086;28;20524;-69
2023/06/04 05:47:16;;;;;;;4.75;1.70;;;18.90;75.50;;;;;;5055315;28;20020;-78
2023/06/04 05:49:42;;;;;;;4.10;1.95;;;19.00;75.20;;;;;;5055157;28;20021;-79
2023/06/04 05:52:07;;;;;;;3.08;2.05;;;19.10;74.80;;;;;;5055203;28;20029;-73
2023/06/04 05:54:33;;;;;;;3.72;1.80;;;19.20;74.40;;;;;;5049991;28;20041;-69
2023/06/04 05:56:59;;;;;;;4.65;2.20;;;19.30;74.40;;;;;;5043198;28;20061;-68
2023/06/04 05:59:24;;;;;;;4.35;1.60;;;19.30;74.40;;;;;;5049400;28;20056;-71
2023/06/04 06:01:50;;;;;;;3.80;1.75;;;19.40;74.10;;;;;;5036351;28;20048;-73
2023/06/04 06:04:16;;;;;;;3.60;1.80;;;19.50;73.80;;;;;;5043352;28;20034;-72
2023/06/04 06:06:47;;;;;;;3.60;2.03;;;19.60;74.00;;;;;;5032280;28;20108;-72
2023/06/04 06:09:12;;;;;;;3.15;1.98;;;19.60;73.60;;;;;;5033766;28;20052;-71
2023/06/04 06:11:38;;;;;;;5.13;1.90;;;19.70;72.50;;;;;;5038399;28;20053;-71
2023/06/04 06:14:03;;;;;;;5.30;1.77;;;19.80;72.30;;;;;;5035508;28;20475;-70
2023/06/04 06:16:29;;;;;;;3.25;1.65;;;19.80;71.80;;;;;;5036275;28;20525;-70
2023/06/04 06:18:55;;;;;;;2.03;1.65;;;19.90;72.20;;;;;;5034181;28;20080;-71
2023/06/04 06:21:21;;;;;;;7.10;1.80;;;20.00;70.80;;;;;;5049133;28;20486;-70
2023/06/04 06:23:46;;;;;;;5.43;1.88;;;20.10;70.00;;;;;;5034150;28;20026;-71
2023/06/04 06:26:13;;;;;;;2.67;1.30;;;20.10;70.20;;;;;;5040689;28;20110;-71
2023/06/04 06:28:39;;;;;;;3.55;1.80;;;20.20;70.80;;;;;;5050041;28;20036;-70
2023/06/04 06:31:05;;;;;;;5.47;1.77;;;20.20;70.90;;;;;;5039688;28;20026;-67
2023/06/04 06:33:31;;;;;;;8.27;2.10;;;20.30;70.60;;;;;;5050665;28;20028;-68
2023/06/04 06:35:59;;;;;;;2.83;1.77;;;20.40;69.10;;;;;;5059606;28;20037;-78
2023/06/04 06:38:26;;;;;;;3.05;1.60;;;20.50;69.00;;;;;;5056208;28;20032;-69
2023/06/04 06:40:52;;;;;;;1.60;1.27;;;20.50;68.50;;;;;;5047970;28;20076;-68
2023/06/04 06:43:17;;;;;;;4.15;1.60;;;20.60;68.30;;;;;;5046451;28;20072;-67
2023/06/04 06:45:43;;;;;;;3.53;1.48;;;20.60;68.10;;;;;;5048697;28;20022;-66
2023/06/04 06:48:09;;;;;;;2.53;1.17;;;20.70;68.10;;;;;;5053216;28;20024;-68
2023/06/04 06:50:35;;;;;;;2.92;1.90;;;20.70;67.70;;;;;;5051922;28;20042;-69
2023/06/04 06:53:02;;;;;;;5.57;1.73;;;20.80;67.90;;;;;;5056668;28;20032;-68
2023/06/04 06:55:28;;;;;;;2.50;1.58;;;20.80;67.50;;;;;;5060869;28;20028;-69
2023/06/04 06:57:53;;;;;;;2.35;1.40;;;20.90;68.00;;;;;;5057257;28;20020;-69
2023/06/04 07:00:19;;;;;;;3.33;1.83;;;21.00;67.10;;;;;;5047126;28;20024;-69
2023/06/04 07:02:44;;;;;;;4.60;1.63;;;21.00;66.90;;;;;;5037029;28;20030;-69
2023/06/04 07:05:11;;;;;;;4.15;1.60;;;21.10;67.00;;;;;;5059780;28;20020;-69
2023/06/04 07:07:37;;;;;;;2.90;1.63;;;21.10;66.90;;;;;;5055059;28;20139;-69
2023/06/04 07:10:03;;;;;;;4.65;1.65;;;21.10;67.30;;;;;;5065647;28;20474;-68
2023/06/04 07:12:29;;;;;;;3.92;1.42;;;21.20;66.80;;;;;;5060010;28;20098;-69
2023/06/04 07:14:55;;;;;;;3.83;1.52;;;21.30;66.90;;;;;;5058490;28;20028;-69
2023/06/04 07:17:22;;;;;;;6.60;2.00;;;21.30;67.00;;;;;;5066041;28;20064;-69
2023/06/04 07:19:47;;;;;;;4.20;1.55;;;21.40;66.80;;;;;;5055185;28;20079;-69
2023/06/04 07:22:15;;;;;;;1.73;1.05;;;21.40;65.40;;;;;;5065221;28;20454;-69
2023/06/04 07:24:41;;;;;;;4.22;1.60;;;21.50;64.90;;;;;;5061728;28;20048;-69
2023/06/04 07:27:14;;;;;;;4.20;1.58;;;21.50;65.80;;;;;;5057300;28;20124;-69
2023/06/04 07:29:40;;;;;;;2.70;1.70;;;21.60;66.60;;;;;;5068601;28;20028;-69
2023/06/04 07:32:06;;;;;;;2.88;1.55;;;21.50;65.10;;;;;;5052415;28;20524;-69
2023/06/04 07:34:32;;;;;;;4.15;1.80;;;21.60;65.10;;;;;;5053138;28;20021;-69
2023/06/04 07:36:58;;;;;;;2.33;1.50;;;21.70;65.20;;;;;;5045164;28;20039;-69
2023/06/04 07:39:23;;;;;;;5.78;1.60;;;21.80;65.50;;;;;;5036503;28;20026;-69
2023/06/04 07:41:49;;;;;;;3.08;1.40;;;21.80;65.50;;;;;;5048237;28;20048;-69
2023/06/04 07:44:14;;;;;;;2.70;0.95;;;21.80;65.10;;;;;;5050091;28;20018;-70
2023/06/04 07:46:40;;;;;;;4.57;1.20;;;21.80;63.00;;;;;;5049129;28;20036;-69
2023/06/04 07:49:05;;;;;;;5.60;1.23;;;22.00;60.70;;;;;;5033311;28;20537;-73
2023/06/04 07:51:31;;;;;;;3.45;1.20;;;22.00;61.50;;;;;;5042254;28;20080;-69
2023/06/04 07:53:56;;;;;;;3.65;1.20;;;22.00;61.50;;;;;;5038688;28;20084;-69
2023/06/04 07:56:22;;;;;;;3.15;1.30;;;22.10;60.90;;;;;;5066847;28;20162;-71
2023/06/04 07:58:47;;;;;;;2.28;1.15;;;22.10;60.70;;;;;;5054095;28;20017;-70
2023/06/04 08:01:13;;;;;;;2.70;1.00;;;22.10;60.60;;;;;;5059323;28;20547;-70
2023/06/04 08:03:40;;;;;;;4.13;1.10;;;22.20;59.80;;;;;;5057022;28;20478;-72
2023/06/04 08:06:06;;;;;;;3.42;1.10;;;22.20;60.00;;;;;;5056112;28;20029;-74
2023/06/04 08:08:33;;;;;;;2.95;0.50;;;22.30;60.00;;;;;;5056918;28;20057;-73
2023/06/04 08:10:59;;;;;;;2.03;0.98;;;22.30;58.70;;;;;;5062323;28;20017;-71
2023/06/04 08:13:25;;;;;;;1.88;0.82;;;22.40;58.50;;;;;;5068027;28;20056;-75
2023/06/04 08:15:51;;;;;;;1.92;1.23;;;22.40;59.40;;;;;;5067030;28;20347;-72
2023/06/04 08:18:17;;;;;;;1.85;1.00;;;22.40;59.60;;;;;;5057919;28;20032;-74
2023/06/04 08:20:42;;;;;;;2.22;0.80;;;22.40;60.00;;;;;;5073738;28;20021;-74
2023/06/04 08:23:08;;;;;;;4.65;0.98;;;22.40;59.40;;;;;;5052198;28;20033;-71
2023/06/04 08:25:33;;;;;;;2.22;0.95;;;22.50;58.50;;;;;;5059031;28;20027;-71
2023/06/04 08:27:59;;;;;;;1.60;0.80;;;22.50;58.00;;;;;;5063177;28;20498;-71
2023/06/04 08:30:27;;;;;;;1.98;1.00;;;22.50;57.80;;;;;;5063908;28;20109;-71
2023/06/04 08:32:53;;;;;;;5.95;0.80;;;22.50;57.50;;;;;;5069469;28;20027;-70
2023/06/04 08:35:19;;;;;;;3.40;1.10;;;22.50;56.40;;;;;;5054385;28;20029;-71
2023/06/04 08:37:44;;;;;;;2.83;1.15;;;22.60;56.60;;;;;;5057203;28;20532;-69
2023/06/04 08:40:11;;;;;;;2.17;0.93;;;22.60;55.70;;;;;;5051322;28;20037;-73
2023/06/04 08:42:46;;;;;;;2.25;0.80;;;22.60;56.20;;;;;;5058566;28;20496;-71
2023/06/04 08:45:15;;;;;;;2.88;0.90;;;22.70;54.90;;;;;;5047580;28;20021;-73
2023/06/04 08:47:48;;;;;;;2.63;0.90;;;22.70;55.70;;;;;;5068626;28;20061;-71
2023/06/04 08:50:16;;;;;;;3.97;0.80;;;22.70;55.50;;;;;;5059038;28;20082;-71
2023/06/04 08:52:43;;;;;;;2.58;0.88;;;22.70;56.30;;;;;;5065819;28;20020;-72
2023/06/04 08:55:11;;;;;;;3.45;0.98;;;22.70;56.80;;;;;;5068463;28;20562;-72
2023/06/04 08:57:37;;;;;;;2.65;0.80;;;22.70;56.10;;;;;;5051623;28;20021;-73
2023/06/04 09:00:05;;;;;;;2.28;1.00;;;22.70;56.40;;;;;;5071883;28;20021;-72
2023/06/04 09:02:31;;;;;;;2.47;1.00;;;22.70;58.00;;;;;;5060163;28;20036;-72
2023/06/04 09:04:57;;;;;;;2.53;0.80;;;22.70;57.20;;;;;;5059481;28;20124;-73
2023/06/04 09:07:24;;;;;;;2.63;0.70;;;22.80;54.90;;;;;;5053215;28;20029;-73
2023/06/04 09:09:50;;;;;;;1.50;0.68;;;22.80;53.80;;;;;;5044734;28;20100;-69
2023/06/04 09:12:25;;;;;;;2.72;0.82;;;22.80;54.20;;;;;;5043087;28;20543;-71
2023/06/04 09:14:50;;;;;;;2.55;1.05;;;22.80;54.80;;;;;;5050897;28;20553;-71
2023/06/04 09:17:21;;;;;;;2.55;0.77;;;22.80;54.30;;;;;;5066119;28;20116;-72
2023/06/04 09:19:47;;;;;;;2.60;0.70;;;22.70;54.90;;;;;;5049783;28;20029;-69
2023/06/04 09:22:13;;;;;;;1.67;0.52;;;22.80;54.50;;;;;;5043539;28;20163;-69
2023/06/04 09:24:40;;;;;;;2.70;0.88;;;22.70;55.40;;;;;;5065575;28;20035;-69
2023/06/04 09:27:11;;;;;;;3.92;0.68;;;22.80;54.80;;;;;;5064628;28;20116;-70
2023/06/04 09:29:37;;;;;;;3.03;0.52;;;22.80;54.60;;;;;;5051367;28;20029;-69
2023/06/04 09:32:03;;;;;;;1.30;0.60;;;22.80;54.90;;;;;;5038709;28;20033;-72
2023/06/04 09:34:29;;;;;;;2.70;0.40;;;22.80;54.40;;;;;;5037822;28;20032;-69
2023/06/04 09:37:14;;;;;;;1.63;0.60;;;22.80;54.80;;;;;;5046749;28;20048;-68
2023/06/04 09:39:39;;;;;;;2.17;0.85;;;22.80;54.30;;;;;;5045277;28;20044;-71
2023/06/04 09:42:54;;;;;;;1.02;0.50;;;22.80;54.00;;;;;;5045535;28;20041;-67
2023/06/04 09:45:35;;;;;;;2.05;0.70;;;22.80;54.30;;;;;;5049506;28;20037;-69
2023/06/04 09:48:02;;;;;;;2.35;0.50;;;22.80;54.50;;;;;;5038736;28;20028;-72
2023/06/04 09:50:30;;;;;;;4.22;1.00;;;22.80;54.00;;;;;;5047605;28;20552;-71
2023/06/04 09:52:56;;;;;;;2.17;0.47;;;22.80;54.20;;;;;;5060736;28;20039;-74
2023/06/04 09:55:22;;;;;;;3.10;0.82;;;22.80;54.50;;;;;;5057484;28;20020;-69
2023/06/04 09:57:49;;;;;;;2.25;0.80;;;22.80;54.00;;;;;;5050380;28;20044;-68
2023/06/04 10:00:20;;;;;;;1.92;0.60;;;22.80;54.40;;;;;;5050426;28;20017;-68
2023/06/04 10:02:47;;;;;;;2.78;0.70;;;22.80;53.70;;;;;;5046901;28;20040;-68
2023/06/04 10:05:14;;;;;;;2.35;0.50;;;22.80;55.30;;;;;;5045082;28;20025;-70
2023/06/04 10:07:44;;;;;;;1.48;0.70;;;22.80;54.30;;;;;;5046290;28;20043;-69
2023/06/04 10:10:37;;;;;;;2.38;0.68;;;22.80;54.80;;;;;;5054616;28;20032;-68
2023/06/04 10:13:10;;;;;;;3.00;0.90;;;22.80;54.10;;;;;;5042568;28;20045;-68
2023/06/04 10:15:36;;;;;;;;;;;22.80;54.10;;;;;;5047203;28;20021;-68
2023/06/04 10:18:03;;;;;;;2.00;0.85;;;22.80;54.40;;;;;;5050433;28;19962;-67
2023/06/04 10:20:29;;;;;;;2.58;0.43;;;22.80;54.20;;;;;;5049567;28;20029;-68
2023/06/04 10:22:55;;;;;;;3.08;0.75;;;22.80;54.80;;;;;;5043288;28;20033;-67
2023/06/04 10:25:21;;;;;;;2.78;0.50;;;22.80;54.90;;;;;;5059369;28;20028;-67
2023/06/04 10:27:46;;;;;;;1.65;0.45;;;22.80;55.10;;;;;;5044880;28;20469;-70
2023/06/04 10:30:12;;;;;;;4.35;0.80;;;22.80;53.30;;;;;;5044886;28;20056;-68
2023/06/04 10:32:38;;;;;;;1.77;0.60;;;22.80;53.80;;;;;;5040949;28;20088;-68
2023/06/04 10:35:07;;;;;;;1.45;0.70;;;22.80;54.00;;;;;;5038406;28;20041;-70
2023/06/04 10:37:33;;;;;;;1.75;0.70;;;22.80;55.20;;;;;;5061770;28;20106;-70
2023/06/04 10:39:59;;;;;;;1.80;0.80;;;22.80;54.00;;;;;;5056893;28;20425;-69
2023/06/04 10:42:26;;;;;;;3.78;0.75;;;22.90;53.30;;;;;;5045667;28;20081;-66
2023/06/04 10:44:53;;;;;;;1.65;1.00;;;22.90;53.20;;;;;;5070993;28;20504;-70
2023/06/04 10:47:23;;;;;;;3.42;1.20;;;22.80;54.40;;;;;;5056729;28;20107;-74
2023/06/04 10:49:53;;;;;;;2.65;0.80;;;22.80;55.00;;;;;;5055757;28;20017;-75
2023/06/04 10:52:19;;;;;;;3.45;0.52;;;22.90;55.00;;;;;;5067356;28;20035;-71
2023/06/04 10:54:48;;;;;;;3.30;0.90;;;22.90;54.00;;;;;;5053024;28;20016;-70
2023/06/04 10:57:18;;;;;;;4.05;0.70;;;22.90;54.60;;;;;;5058441;28;20078;-71
2023/06/04 10:59:57;;;;;;;2.47;0.65;;;22.90;55.60;;;;;;5060458;28;20021;-70
2023/06/04 11:02:22;;;;;;;2.78;0.55;;;22.90;54.20;;;;;;5053045;28;20037;-75
2023/06/04 11:05:01;;;;;;;1.70;0.68;;;22.90;53.00;;;;;;5053445;28;20048;-75
2023/06/04 11:07:27;;;;;;;1.35;0.43;;;22.90;53.60;;;;;;5050863;28;20079;-75
2023/06/04 11:09:53;;;;;;;1.00;0.68;;;22.90;53.40;;;;;;5052895;28;20107;-75
2023/06/04 11:12:19;;;;;;;1.55;0.70;;;22.90;53.70;;;;;;5051796;28;20100;-75
2023/06/04 11:14:55;;;;;;;2.00;0.50;;;22.90;54.00;;;;;;5053449;28;20459;-75
2023/06/04 11:17:20;;;;;;;3.88;1.08;;;22.90;53.50;;;;;;5053063;28;20066;-75
2023/06/04 11:19:46;;;;;;;1.33;0.63;;;22.90;54.20;;;;;;5050304;28;20037;-75
2023/06/04 11:22:12;;;;;;;1.30;0.60;;;22.90;54.00;;;;;;5052922;28;20033;-75
2023/06/04 11:24:38;;;;;;;2.90;0.60;;;22.90;53.70;;;;;;5052742;28;20021;-75
2023/06/04 11:27:04;;;;;;;2.30;0.70;;;22.90;53.50;;;;;;5052291;28;20074;-74
2023/06/04 11:29:30;;;;;;;2.22;0.65;;;22.90;53.30;;;;;;5052426;28;20060;-75
2023/06/04 11:31:57;;;;;;;1.48;0.60;;;23.00;54.30;;;;;;5048867;28;20059;-75
2023/06/04 11:34:31;;;;;;;1.77;0.50;;;23.00;53.10;;;;;;5040989;28;20025;-75
2023/06/04 11:37:10;;;;;;;3.00;0.90;;;23.00;53.20;;;;;;5051779;28;20029;-73
2023/06/04 11:39:38;;;;;;;1.98;0.73;;;23.00;54.00;;;;;;5050767;28;20029;-74
2023/06/04 11:42:07;;;;;;;2.17;0.63;;;23.00;53.60;;;;;;5051201;28;20402;-74
2023/06/04 11:44:34;;;;;;;2.33;0.70;;;23.00;53.40;;;;;;5042178;28;20025;-74
2023/06/04 11:46:59;;;;;;;3.55;0.50;;;23.00;53.70;;;;;;5032390;28;20025;-74
2023/06/04 11:49:27;;;;;;;1.98;0.57;;;23.00;52.60;;;;;;5032849;28;20032;-73
2023/06/04 11:51:53;;;;;;;3.47;0.60;;;23.00;52.60;;;;;;5032647;28;20096;-73
2023/06/04 11:54:21;;;;;;;2.38;0.70;;;22.90;52.80;;;;;;5032590;28;20032;-74
2023/06/04 11:56:49;;;;;;;2.65;0.60;;;23.00;53.70;;;;;;5032549;28;20501;-75
2023/06/04 11:59:16;;;;;;;2.15;0.80;;;23.00;53.10;;;;;;5032052;28;20487;-74
2023/06/04 12:01:46;;;;;;;1.20;0.80;;;23.00;53.50;;;;;;5065508;28;20032;-73
2023/06/04 12:04:16;;;;;;;1.35;0.70;;;23.00;53.80;;;;;;5045297;28;20052;-72
2023/06/04 12:06:53;;;;;;;1.20;0.70;;;23.10;53.50;;;;;;5042388;28;20075;-73
2023/06/04 12:09:31;;;;;;;1.15;0.60;;;23.10;53.80;;;;;;5049522;28;20416;-73
2023/06/04 12:12:07;;;;;;;4.70;0.90;;;23.10;54.30;;;;;;5066443;28;20166;-72
2023/06/04 12:14:34;;;;;;;1.77;0.70;;;23.10;53.80;;;;;;5033929;28;20444;-72
2023/06/04 12:17:05;;;;;;;2.35;0.85;;;23.10;53.40;;;;;;5049525;28;20168;-73
2023/06/04 12:19:33;;;;;;;2.70;0.88;;;23.10;54.10;;;;;;5051100;28;20021;-74
2023/06/04 12:22:08;;;;;;;1.27;0.65;;;23.10;54.50;;;;;;5035007;28;20091;-73
2023/06/04 12:24:46;;;;;;;1.10;0.60;;;23.10;54.40;;;;;;5053163;28;20047;-74
2023/06/04 12:27:12;;;;;;;4.00;0.88;;;23.10;53.00;;;;;;5046019;28;20512;-74
2023/06/04 12:29:37;;;;;;;6.70;1.00;;;23.10;52.80;;;;;;5052826;28;20016;-74
2023/06/04 12:32:07;;;;;;;2.65;0.70;;;23.00;53.30;;;;;;5060477;28;20044;-73
2023/06/04 12:34:34;;;;;;;6.20;0.80;;;23.10;53.10;;;;;;5051044;28;20021;-74
2023/06/04 12:37:00;;;;;;;1.80;0.80;;;23.20;53.60;;;;;;5050692;28;20075;-74
2023/06/04 12:39:25;;;;;;;3.45;0.80;;;23.20;54.40;;;;;;5042985;28;20025;-73
2023/06/04 12:41:51;;;;;;;2.47;0.70;;;23.20;53.40;;;;;;5065057;28;20036;-73
2023/06/04 12:44:17;;;;;;;2.67;0.60;;;23.20;53.90;;;;;;5052749;28;20051;-74
2023/06/04 12:46:43;;;;;;;3.17;0.93;;;23.20;53.50;;;;;;5058736;28;20021;-73